sensor_id;sensor_type;location;lat;lon;timestamp;temperature;humidity
6206;DHT22;3136;48.788;9.772;2023-02-28T00:00:43;-2.10;99.90
6206;DHT22;3136;48.788;9.772;2023-02-28T00:03:09;-2.10;99.90
6206;DHT22;3136;48.788;9.772;2023-02-28T00:05:34;-2.00;99.90
6206;DHT22;3136;48.788;9.772;2023-02-28T00:08:00;-2.00;99.90
6206;DHT22;3136;48.788;9.772;2023-02-28T00:10:28;-2.30;99.90
6206;DHT22;3136;48.788;9.772;2023-02-28T00:12:55;-1.90;99.90
6206;DHT22;3136;48.788;9.772;2023-02-28T00:15:24;-1.90;99.90
6206;DHT22;3136;48.788;9.772;2023-02-28T00:17:51;-1.80;99.90
6206;DHT22;3136;48.788;9.772;2023-02-28T00:20:16;-1.80;99.90
6206;DHT22;3136;48.788;9.772;2023-02-28T00:22:47;-1.80;99.90
6206;DHT22;3136;48.788;9.772;2023-02-28T00:25:16;-1.80;99.90
6206;DHT22;3136;48.788;9.772;2023-02-28T00:27:42;-1.80;99.90
6206;DHT22;3136;48.788;9.772;2023-02-28T00:30:12;-1.80;99.90
6206;DHT22;3136;48.788;9.772;2023-02-28T00:32:39;-0.50;99.90
6206;DHT22;3136;48.788;9.772;2023-02-28T00:35:05;-1.70;99.90
6206;DHT22;3136;48.788;9.772;2023-02-28T00:37:31;-1.70;99.90
6206;DHT22;3136;48.788;9.772;2023-02-28T00:39:56;-1.70;99.90
6206;DHT22;3136;48.788;9.772;2023-02-28T00:42:23;-1.70;99.90
6206;DHT22;3136;48.788;9.772;2023-02-28T00:44:48;-1.70;99.90
6206;DHT22;3136;48.788;9.772;2023-02-28T00:47:14;1.00;99.90
6206;DHT22;3136;48.788;9.772;2023-02-28T00:49:40;-1.70;99.90
6206;DHT22;3136;48.788;9.772;2023-02-28T00:52:05;-1.70;99.90
6206;DHT22;3136;48.788;9.772;2023-02-28T00:54:31;-1.70;99.90
6206;DHT22;3136;48.788;9.772;2023-02-28T00:56:56;0.80;99.90
6206;DHT22;3136;48.788;9.772;2023-02-28T00:59:22;-1.80;99.90
6206;DHT22;3136;48.788;9.772;2023-02-28T01:01:47;-1.80;99.90
6206;DHT22;3136;48.788;9.772;2023-02-28T01:04:14;-1.90;99.90
6206;DHT22;3136;48.788;9.772;2023-02-28T01:06:40;-1.80;99.90
6206;DHT22;3136;48.788;9.772;2023-02-28T01:09:07;-1.80;99.90
6206;DHT22;3136;48.788;9.772;2023-02-28T01:11:34;-1.90;99.90
6206;DHT22;3136;48.788;9.772;2023-02-28T01:13:59;-1.90;99.90
6206;DHT22;3136;48.788;9.772;2023-02-28T01:16:26;-1.90;99.90
6206;DHT22;3136;48.788;9.772;2023-02-28T01:18:51;-1.90;99.90
6206;DHT22;3136;48.788;9.772;2023-02-28T01:21:19;-1.90;99.90
6206;DHT22;3136;48.788;9.772;2023-02-28T01:23:45;-1.90;99.90
6206;DHT22;3136;48.788;9.772;2023-02-28T01:26:17;-1.90;99.90
6206;DHT22;3136;48.788;9.772;2023-02-28T01:28:43;-1.90;99.90
6206;DHT22;3136;48.788;9.772;2023-02-28T01:31:09;-1.90;99.90
6206;DHT22;3136;48.788;9.772;2023-02-28T01:33:35;-1.90;99.90
6206;DHT22;3136;48.788;9.772;2023-02-28T01:36:07;-1.90;99.90
6206;DHT22;3136;48.788;9.772;2023-02-28T01:38:34;-1.90;99.90
6206;DHT22;3136;48.788;9.772;2023-02-28T01:41:00;-1.90;99.90
6206;DHT22;3136;48.788;9.772;2023-02-28T01:46:15;-2.00;99.90
6206;DHT22;3136;48.788;9.772;2023-02-28T01:48:45;-2.00;99.90
6206;DHT22;3136;48.788;9.772;2023-02-28T01:51:19;-2.00;99.90
6206;DHT22;3136;48.788;9.772;2023-02-28T01:53:54;-2.00;99.90
6206;DHT22;3136;48.788;9.772;2023-02-28T01:56:26;-2.10;99.90
6206;DHT22;3136;48.788;9.772;2023-02-28T01:58:53;-2.10;99.90
6206;DHT22;3136;48.788;9.772;2023-02-28T02:01:21;-2.10;99.90
6206;DHT22;3136;48.788;9.772;2023-02-28T02:03:55;-2.10;99.90
6206;DHT22;3136;48.788;9.772;2023-02-28T02:06:23;-2.10;99.90
6206;DHT22;3136;48.788;9.772;2023-02-28T02:08:50;-2.20;99.90
6206;DHT22;3136;48.788;9.772;2023-02-28T02:11:18;-2.10;99.90
6206;DHT22;3136;48.788;9.772;2023-02-28T02:19:04;-2.10;99.90
6206;DHT22;3136;48.788;9.772;2023-02-28T02:35:23;-2.00;99.90
6206;DHT22;3136;48.788;9.772;2023-02-28T02:38:00;-1.90;99.90
6206;DHT22;3136;48.788;9.772;2023-02-28T02:40:37;-1.90;99.90
6206;DHT22;3136;48.788;9.772;2023-02-28T02:46:10;-1.90;99.90
6206;DHT22;3136;48.788;9.772;2023-02-28T02:48:39;-1.90;99.90
6206;DHT22;3136;48.788;9.772;2023-02-28T02:51:24;-1.90;99.90
6206;DHT22;3136;48.788;9.772;2023-02-28T02:54:08;-1.90;99.90
6206;DHT22;3136;48.788;9.772;2023-02-28T02:56:39;-1.90;99.90
6206;DHT22;3136;48.788;9.772;2023-02-28T02:59:09;-1.90;99.90
6206;DHT22;3136;48.788;9.772;2023-02-28T03:01:37;-1.90;99.90
6206;DHT22;3136;48.788;9.772;2023-02-28T03:04:08;-1.90;99.90
6206;DHT22;3136;48.788;9.772;2023-02-28T03:06:34;-1.90;99.90
6206;DHT22;3136;48.788;9.772;2023-02-28T03:09:01;-1.90;99.90
6206;DHT22;3136;48.788;9.772;2023-02-28T03:11:27;-1.80;99.90
6206;DHT22;3136;48.788;9.772;2023-02-28T03:13:58;-1.80;99.90
6206;DHT22;3136;48.788;9.772;2023-02-28T03:16:51;-1.80;99.90
6206;DHT22;3136;48.788;9.772;2023-02-28T03:22:23;-1.70;99.90
6206;DHT22;3136;48.788;9.772;2023-02-28T03:25:06;-1.70;99.90
6206;DHT22;3136;48.788;9.772;2023-02-28T03:30:26;-1.60;99.90
6206;DHT22;3136;48.788;9.772;2023-02-28T03:33:14;-1.60;99.90
6206;DHT22;3136;48.788;9.772;2023-02-28T03:35:49;-1.60;99.90
6206;DHT22;3136;48.788;9.772;2023-02-28T03:41:17;-1.60;99.90
6206;DHT22;3136;48.788;9.772;2023-02-28T03:43:56;-1.60;99.90
6206;DHT22;3136;48.788;9.772;2023-02-28T03:46:25;-1.50;99.90
6206;DHT22;3136;48.788;9.772;2023-02-28T03:49:17;-1.50;99.90
6206;DHT22;3136;48.788;9.772;2023-02-28T03:51:45;-1.50;99.90
6206;DHT22;3136;48.788;9.772;2023-02-28T03:54:31;-1.50;99.90
6206;DHT22;3136;48.788;9.772;2023-02-28T03:57:53;-1.50;99.90
6206;DHT22;3136;48.788;9.772;2023-02-28T04:00:35;-1.50;99.90
6206;DHT22;3136;48.788;9.772;2023-02-28T04:03:03;-1.50;99.90
6206;DHT22;3136;48.788;9.772;2023-02-28T04:05:29;-1.40;99.90
6206;DHT22;3136;48.788;9.772;2023-02-28T04:08:04;-1.40;99.90
6206;DHT22;3136;48.788;9.772;2023-02-28T04:10:30;-1.40;99.90
6206;DHT22;3136;48.788;9.772;2023-02-28T04:12:55;-1.40;99.90
6206;DHT22;3136;48.788;9.772;2023-02-28T04:15:21;-1.40;99.90
6206;DHT22;3136;48.788;9.772;2023-02-28T04:17:48;-1.40;99.90
6206;DHT22;3136;48.788;9.772;2023-02-28T04:20:13;-1.30;99.90
6206;DHT22;3136;48.788;9.772;2023-02-28T04:22:39;-1.40;99.90
6206;DHT22;3136;48.788;9.772;2023-02-28T04:25:05;-1.40;99.90
6206;DHT22;3136;48.788;9.772;2023-02-28T04:27:31;-1.40;99.90
6206;DHT22;3136;48.788;9.772;2023-02-28T04:29:56;-1.40;99.90
6206;DHT22;3136;48.788;9.772;2023-02-28T04:32:22;-1.40;99.90
6206;DHT22;3136;48.788;9.772;2023-02-28T04:34:47;-1.40;99.90
6206;DHT22;3136;48.788;9.772;2023-02-28T04:37:13;-1.40;99.90
6206;DHT22;3136;48.788;9.772;2023-02-28T04:39:39;-1.40;99.90
6206;DHT22;3136;48.788;9.772;2023-02-28T04:42:04;-1.40;99.90
6206;DHT22;3136;48.788;9.772;2023-02-28T04:44:30;-1.30;99.90
6206;DHT22;3136;48.788;9.772;2023-02-28T04:46:56;-1.40;99.90
6206;DHT22;3136;48.788;9.772;2023-02-28T04:49:22;-1.30;99.90
6206;DHT22;3136;48.788;9.772;2023-02-28T04:51:47;-1.30;99.90
6206;DHT22;3136;48.788;9.772;2023-02-28T04:54:15;-1.30;99.90
6206;DHT22;3136;48.788;9.772;2023-02-28T04:56:41;-1.30;99.90
6206;DHT22;3136;48.788;9.772;2023-02-28T04:59:07;-1.30;99.90
6206;DHT22;3136;48.788;9.772;2023-02-28T05:01:33;-1.30;99.90
6206;DHT22;3136;48.788;9.772;2023-02-28T05:04:01;-1.30;99.90
6206;DHT22;3136;48.788;9.772;2023-02-28T05:06:28;-1.30;99.90
6206;DHT22;3136;48.788;9.772;2023-02-28T05:08:55;-1.30;99.90
6206;DHT22;3136;48.788;9.772;2023-02-28T05:13:47;-1.30;99.90
6206;DHT22;3136;48.788;9.772;2023-02-28T05:16:14;-1.30;99.90
6206;DHT22;3136;48.788;9.772;2023-02-28T05:18:39;-1.30;99.90
6206;DHT22;3136;48.788;9.772;2023-02-28T05:21:05;-1.30;99.90
6206;DHT22;3136;48.788;9.772;2023-02-28T05:23:31;-1.20;99.90
6206;DHT22;3136;48.788;9.772;2023-02-28T05:25:56;-1.20;99.90
6206;DHT22;3136;48.788;9.772;2023-02-28T05:28:22;-1.20;99.90
6206;DHT22;3136;48.788;9.772;2023-02-28T05:30:48;-1.20;99.90
6206;DHT22;3136;48.788;9.772;2023-02-28T05:33:14;-1.30;99.90
6206;DHT22;3136;48.788;9.772;2023-02-28T05:35:40;-1.30;99.90
6206;DHT22;3136;48.788;9.772;2023-02-28T05:38:08;-1.20;99.90
6206;DHT22;3136;48.788;9.772;2023-02-28T05:40:33;-1.20;99.90
6206;DHT22;3136;48.788;9.772;2023-02-28T05:42:59;-1.30;99.90
6206;DHT22;3136;48.788;9.772;2023-02-28T05:45:25;-1.30;99.90
6206;DHT22;3136;48.788;9.772;2023-02-28T05:47:54;-1.30;99.90
6206;DHT22;3136;48.788;9.772;2023-02-28T05:50:20;-1.20;99.90
6206;DHT22;3136;48.788;9.772;2023-02-28T05:52:50;-1.20;99.90
6206;DHT22;3136;48.788;9.772;2023-02-28T05:55:15;-1.20;99.90
6206;DHT22;3136;48.788;9.772;2023-02-28T05:57:41;-1.20;99.90
6206;DHT22;3136;48.788;9.772;2023-02-28T06:00:08;-1.30;99.90
6206;DHT22;3136;48.788;9.772;2023-02-28T06:02:34;-1.20;99.90
6206;DHT22;3136;48.788;9.772;2023-02-28T06:04:59;-1.20;99.90
6206;DHT22;3136;48.788;9.772;2023-02-28T06:07:25;-1.20;99.90
6206;DHT22;3136;48.788;9.772;2023-02-28T06:09:50;-1.20;99.90
6206;DHT22;3136;48.788;9.772;2023-02-28T06:12:16;-1.20;99.90
6206;DHT22;3136;48.788;9.772;2023-02-28T06:14:41;-1.20;99.90
6206;DHT22;3136;48.788;9.772;2023-02-28T06:17:08;-1.20;99.90
6206;DHT22;3136;48.788;9.772;2023-02-28T06:19:33;-1.20;99.90
6206;DHT22;3136;48.788;9.772;2023-02-28T06:21:59;-1.20;99.90
6206;DHT22;3136;48.788;9.772;2023-02-28T06:24:26;-1.20;99.90
6206;DHT22;3136;48.788;9.772;2023-02-28T06:26:53;-1.20;99.90
6206;DHT22;3136;48.788;9.772;2023-02-28T06:29:19;-1.20;99.90
6206;DHT22;3136;48.788;9.772;2023-02-28T06:31:45;-1.20;99.90
6206;DHT22;3136;48.788;9.772;2023-02-28T06:34:11;-1.20;99.90
6206;DHT22;3136;48.788;9.772;2023-02-28T06:36:38;-1.10;99.90
6206;DHT22;3136;48.788;9.772;2023-02-28T06:39:05;-1.10;99.90
6206;DHT22;3136;48.788;9.772;2023-02-28T06:41:30;-1.10;99.90
6206;DHT22;3136;48.788;9.772;2023-02-28T06:43:56;-1.10;99.90
6206;DHT22;3136;48.788;9.772;2023-02-28T06:46:22;-1.10;99.90
6206;DHT22;3136;48.788;9.772;2023-02-28T06:48:48;-1.00;99.90
6206;DHT22;3136;48.788;9.772;2023-02-28T06:51:19;-1.00;99.90
6206;DHT22;3136;48.788;9.772;2023-02-28T06:53:48;-1.00;99.90
6206;DHT22;3136;48.788;9.772;2023-02-28T06:56:15;-1.00;99.90
6206;DHT22;3136;48.788;9.772;2023-02-28T06:58:40;-0.90;99.90
6206;DHT22;3136;48.788;9.772;2023-02-28T07:01:07;-0.90;99.90
6206;DHT22;3136;48.788;9.772;2023-02-28T07:03:34;-0.80;99.90
6206;DHT22;3136;48.788;9.772;2023-02-28T07:06:00;-0.80;99.90
6206;DHT22;3136;48.788;9.772;2023-02-28T07:08:26;-0.80;99.90
6206;DHT22;3136;48.788;9.772;2023-02-28T07:10:55;-0.80;99.90
6206;DHT22;3136;48.788;9.772;2023-02-28T07:13:21;-0.70;99.90
6206;DHT22;3136;48.788;9.772;2023-02-28T07:16:01;-0.70;99.90
6206;DHT22;3136;48.788;9.772;2023-02-28T07:18:27;-0.80;99.90
6206;DHT22;3136;48.788;9.772;2023-02-28T07:20:53;-0.70;99.90
6206;DHT22;3136;48.788;9.772;2023-02-28T07:23:19;-0.70;99.90
6206;DHT22;3136;48.788;9.772;2023-02-28T07:25:45;-0.70;99.90
6206;DHT22;3136;48.788;9.772;2023-02-28T07:28:11;-0.70;99.90
6206;DHT22;3136;48.788;9.772;2023-02-28T07:30:37;-0.70;99.90
6206;DHT22;3136;48.788;9.772;2023-02-28T07:33:03;-0.60;99.90
6206;DHT22;3136;48.788;9.772;2023-02-28T07:35:29;-0.60;99.90
6206;DHT22;3136;48.788;9.772;2023-02-28T07:37:57;-0.60;99.90
6206;DHT22;3136;48.788;9.772;2023-02-28T07:40:22;-0.50;99.90
6206;DHT22;3136;48.788;9.772;2023-02-28T07:42:48;-0.50;99.90
6206;DHT22;3136;48.788;9.772;2023-02-28T07:45:14;-0.50;99.90
6206;DHT22;3136;48.788;9.772;2023-02-28T07:47:40;-0.40;99.90
6206;DHT22;3136;48.788;9.772;2023-02-28T07:50:08;-0.40;99.90
6206;DHT22;3136;48.788;9.772;2023-02-28T07:52:35;-0.30;99.90
6206;DHT22;3136;48.788;9.772;2023-02-28T07:55:01;-0.30;99.90
6206;DHT22;3136;48.788;9.772;2023-02-28T07:57:27;-0.10;99.90
6206;DHT22;3136;48.788;9.772;2023-02-28T07:59:52;-0.20;99.90
6206;DHT22;3136;48.788;9.772;2023-02-28T08:02:18;-0.20;99.90
6206;DHT22;3136;48.788;9.772;2023-02-28T08:04:45;-0.10;99.90
6206;DHT22;3136;48.788;9.772;2023-02-28T08:07:12;0.00;99.90
6206;DHT22;3136;48.788;9.772;2023-02-28T08:09:39;0.10;99.90
6206;DHT22;3136;48.788;9.772;2023-02-28T08:12:05;0.10;99.90
6206;DHT22;3136;48.788;9.772;2023-02-28T08:14:31;0.20;99.90
6206;DHT22;3136;48.788;9.772;2023-02-28T08:16:56;0.20;99.90
6206;DHT22;3136;48.788;9.772;2023-02-28T08:19:22;0.20;99.90
6206;DHT22;3136;48.788;9.772;2023-02-28T08:21:48;0.30;99.90
6206;DHT22;3136;48.788;9.772;2023-02-28T08:24:13;0.30;99.90
6206;DHT22;3136;48.788;9.772;2023-02-28T08:26:39;0.30;98.90
6206;DHT22;3136;48.788;9.772;2023-02-28T08:29:05;0.30;96.80
6206;DHT22;3136;48.788;9.772;2023-02-28T08:31:30;0.30;97.60
6206;DHT22;3136;48.788;9.772;2023-02-28T08:33:56;0.30;95.00
6206;DHT22;3136;48.788;9.772;2023-02-28T08:36:24;0.30;97.10
6206;DHT22;3136;48.788;9.772;2023-02-28T08:38:49;0.40;97.80
6206;DHT22;3136;48.788;9.772;2023-02-28T08:41:15;0.40;94.10
6206;DHT22;3136;48.788;9.772;2023-02-28T08:43:41;0.40;94.40
6206;DHT22;3136;48.788;9.772;2023-02-28T08:46:07;0.50;95.90
6206;DHT22;3136;48.788;9.772;2023-02-28T08:48:34;0.50;92.10
6206;DHT22;3136;48.788;9.772;2023-02-28T08:51:12;0.50;92.10
6206;DHT22;3136;48.788;9.772;2023-02-28T08:53:39;0.60;93.10
6206;DHT22;3136;48.788;9.772;2023-02-28T08:56:07;0.60;90.10
6206;DHT22;3136;48.788;9.772;2023-02-28T08:58:36;0.70;91.80
6206;DHT22;3136;48.788;9.772;2023-02-28T09:01:15;0.80;99.90
6206;DHT22;3136;48.788;9.772;2023-02-28T09:03:41;0.90;87.70
6206;DHT22;3136;48.788;9.772;2023-02-28T09:06:09;1.00;84.50
6206;DHT22;3136;48.788;9.772;2023-02-28T09:08:35;1.20;83.30
6206;DHT22;3136;48.788;9.772;2023-02-28T09:11:01;1.30;77.80
6206;DHT22;3136;48.788;9.772;2023-02-28T09:13:28;1.30;76.50
6206;DHT22;3136;48.788;9.772;2023-02-28T09:15:57;1.40;74.10
6206;DHT22;3136;48.788;9.772;2023-02-28T09:18:23;1.40;75.60
6206;DHT22;3136;48.788;9.772;2023-02-28T09:20:48;1.40;74.00
6206;DHT22;3136;48.788;9.772;2023-02-28T09:23:15;1.40;74.30
6206;DHT22;3136;48.788;9.772;2023-02-28T09:25:53;1.50;74.40
6206;DHT22;3136;48.788;9.772;2023-02-28T09:28:20;1.50;73.20
6206;DHT22;3136;48.788;9.772;2023-02-28T09:30:48;1.60;73.00
6206;DHT22;3136;48.788;9.772;2023-02-28T09:33:14;1.70;70.30
6206;DHT22;3136;48.788;9.772;2023-02-28T09:35:40;1.80;71.30
6206;DHT22;3136;48.788;9.772;2023-02-28T09:38:06;2.00;68.10
6206;DHT22;3136;48.788;9.772;2023-02-28T09:40:37;2.00;64.40
6206;DHT22;3136;48.788;9.772;2023-02-28T09:43:03;2.10;66.00
6206;DHT22;3136;48.788;9.772;2023-02-28T09:45:36;2.30;62.10
6206;DHT22;3136;48.788;9.772;2023-02-28T09:48:23;2.50;64.60
6206;DHT22;3136;48.788;9.772;2023-02-28T09:50:52;2.70;59.10
6206;DHT22;3136;48.788;9.772;2023-02-28T09:53:28;2.90;57.00
6206;DHT22;3136;48.788;9.772;2023-02-28T09:56:19;2.80;56.90
6206;DHT22;3136;48.788;9.772;2023-02-28T09:58:52;2.80;55.90
6206;DHT22;3136;48.788;9.772;2023-02-28T10:01:36;2.80;55.80
6206;DHT22;3136;48.788;9.772;2023-02-28T10:04:05;2.80;54.80
6206;DHT22;3136;48.788;9.772;2023-02-28T10:06:43;2.80;54.40
6206;DHT22;3136;48.788;9.772;2023-02-28T10:09:24;2.80;53.70
6206;DHT22;3136;48.788;9.772;2023-02-28T10:11:52;2.80;52.90
6206;DHT22;3136;48.788;9.772;2023-02-28T10:14:22;2.80;54.80
6206;DHT22;3136;48.788;9.772;2023-02-28T10:17:10;2.80;53.90
6206;DHT22;3136;48.788;9.772;2023-02-28T10:22:22;2.90;53.50
6206;DHT22;3136;48.788;9.772;2023-02-28T10:24:51;3.00;52.60
6206;DHT22;3136;48.788;9.772;2023-02-28T10:29:46;3.20;52.00
6206;DHT22;3136;48.788;9.772;2023-02-28T10:32:19;3.30;51.70
6206;DHT22;3136;48.788;9.772;2023-02-28T10:35:01;3.40;51.30
6206;DHT22;3136;48.788;9.772;2023-02-28T10:37:31;3.40;51.10
6206;DHT22;3136;48.788;9.772;2023-02-28T10:39:57;3.80;51.60
6206;DHT22;3136;48.788;9.772;2023-02-28T10:42:29;4.10;51.20
6206;DHT22;3136;48.788;9.772;2023-02-28T10:45:06;4.20;49.60
6206;DHT22;3136;48.788;9.772;2023-02-28T10:47:34;4.40;49.40
6206;DHT22;3136;48.788;9.772;2023-02-28T10:50:00;4.30;47.90
6206;DHT22;3136;48.788;9.772;2023-02-28T10:52:39;4.50;48.30
6206;DHT22;3136;48.788;9.772;2023-02-28T10:55:35;4.70;47.10
6206;DHT22;3136;48.788;9.772;2023-02-28T10:58:00;5.00;48.80
6206;DHT22;3136;48.788;9.772;2023-02-28T11:00:33;5.30;46.60
6206;DHT22;3136;48.788;9.772;2023-02-28T11:02:59;5.30;45.40
6206;DHT22;3136;48.788;9.772;2023-02-28T11:05:31;5.30;44.80
6206;DHT22;3136;48.788;9.772;2023-02-28T11:08:06;5.20;45.30
6206;DHT22;3136;48.788;9.772;2023-02-28T11:10:32;5.30;45.00
6206;DHT22;3136;48.788;9.772;2023-02-28T11:13:01;5.50;43.60
6206;DHT22;3136;48.788;9.772;2023-02-28T11:15:31;5.60;44.30
6206;DHT22;3136;48.788;9.772;2023-02-28T11:17:59;5.80;44.70
6206;DHT22;3136;48.788;9.772;2023-02-28T11:20:28;5.90;43.50
6206;DHT22;3136;48.788;9.772;2023-02-28T11:22:55;6.30;44.70
6206;DHT22;3136;48.788;9.772;2023-02-28T11:25:25;6.70;42.80
6206;DHT22;3136;48.788;9.772;2023-02-28T11:27:56;7.10;43.20
6206;DHT22;3136;48.788;9.772;2023-02-28T11:30:28;7.80;39.70
6206;DHT22;3136;48.788;9.772;2023-02-28T11:32:55;8.60;40.50
6206;DHT22;3136;48.788;9.772;2023-02-28T11:37:59;10.10;39.10
6206;DHT22;3136;48.788;9.772;2023-02-28T11:40:50;10.60;36.30
6206;DHT22;3136;48.788;9.772;2023-02-28T11:43:44;11.30;37.70
6206;DHT22;3136;48.788;9.772;2023-02-28T11:46:15;11.50;34.60
6206;DHT22;3136;48.788;9.772;2023-02-28T11:48:56;11.70;35.00
6206;DHT22;3136;48.788;9.772;2023-02-28T11:55:03;12.40;34.30
6206;DHT22;3136;48.788;9.772;2023-02-28T11:57:35;12.00;33.30
6206;DHT22;3136;48.788;9.772;2023-02-28T12:05:44;12.30;32.90
6206;DHT22;3136;48.788;9.772;2023-02-28T12:13:59;12.70;31.00
6206;DHT22;3136;48.788;9.772;2023-02-28T12:19:33;13.40;30.40
6206;DHT22;3136;48.788;9.772;2023-02-28T12:24:53;13.70;29.40
6206;DHT22;3136;48.788;9.772;2023-02-28T12:27:22;13.80;29.30
6206;DHT22;3136;48.788;9.772;2023-02-28T12:29:53;13.90;28.60
6206;DHT22;3136;48.788;9.772;2023-02-28T12:34:52;14.70;28.80
6206;DHT22;3136;48.788;9.772;2023-02-28T12:37:27;14.30;30.00
6206;DHT22;3136;48.788;9.772;2023-02-28T12:40:02;14.40;28.10
6206;DHT22;3136;48.788;9.772;2023-02-28T12:42:56;14.30;28.40
6206;DHT22;3136;48.788;9.772;2023-02-28T12:48:00;14.30;28.40
6206;DHT22;3136;48.788;9.772;2023-02-28T12:50:27;14.20;28.10
6206;DHT22;3136;48.788;9.772;2023-02-28T12:58:36;14.10;26.20
6206;DHT22;3136;48.788;9.772;2023-02-28T13:09:58;13.70;26.40
6206;DHT22;3136;48.788;9.772;2023-02-28T13:12:25;13.80;26.40
6206;DHT22;3136;48.788;9.772;2023-02-28T13:17:25;13.70;25.40
6206;DHT22;3136;48.788;9.772;2023-02-28T13:24:55;14.70;25.30
6206;DHT22;3136;48.788;9.772;2023-02-28T13:29:51;14.60;25.00
6206;DHT22;3136;48.788;9.772;2023-02-28T13:32:30;14.80;24.40
6206;DHT22;3136;48.788;9.772;2023-02-28T13:39:58;14.70;23.90
6206;DHT22;3136;48.788;9.772;2023-02-28T13:42:47;14.50;24.50
6206;DHT22;3136;48.788;9.772;2023-02-28T13:45:22;14.00;23.00
6206;DHT22;3136;48.788;9.772;2023-02-28T13:48:00;13.20;24.50
6206;DHT22;3136;48.788;9.772;2023-02-28T13:50:29;13.30;23.60
6206;DHT22;3136;48.788;9.772;2023-02-28T13:53:14;13.70;23.20
6206;DHT22;3136;48.788;9.772;2023-02-28T13:56:19;14.10;22.50
6206;DHT22;3136;48.788;9.772;2023-02-28T13:59:06;14.60;23.20
6206;DHT22;3136;48.788;9.772;2023-02-28T14:01:48;15.30;25.60
6206;DHT22;3136;48.788;9.772;2023-02-28T14:04:51;15.10;22.20
6206;DHT22;3136;48.788;9.772;2023-02-28T14:07:23;15.20;22.20
6206;DHT22;3136;48.788;9.772;2023-02-28T14:09:56;15.30;22.50
6206;DHT22;3136;48.788;9.772;2023-02-28T14:20:49;14.30;21.10
6206;DHT22;3136;48.788;9.772;2023-02-28T14:23:47;13.70;20.30
6206;DHT22;3136;48.788;9.772;2023-02-28T14:26:43;13.50;20.40
6206;DHT22;3136;48.788;9.772;2023-02-28T14:35:35;14.20;21.20
6206;DHT22;3136;48.788;9.772;2023-02-28T14:38:16;13.90;21.40
6206;DHT22;3136;48.788;9.772;2023-02-28T14:40:42;13.60;20.10
6206;DHT22;3136;48.788;9.772;2023-02-28T14:43:21;13.70;20.30
6206;DHT22;3136;48.788;9.772;2023-02-28T14:45:59;13.30;20.30
6206;DHT22;3136;48.788;9.772;2023-02-28T14:48:26;13.10;20.90
6206;DHT22;3136;48.788;9.772;2023-02-28T14:51:01;12.80;20.50
6206;DHT22;3136;48.788;9.772;2023-02-28T14:53:35;12.50;20.70
6206;DHT22;3136;48.788;9.772;2023-02-28T14:56:01;12.30;18.80
6206;DHT22;3136;48.788;9.772;2023-02-28T14:58:30;12.10;19.90
6206;DHT22;3136;48.788;9.772;2023-02-28T15:00:58;12.00;20.30
6206;DHT22;3136;48.788;9.772;2023-02-28T15:06:01;11.50;19.40
6206;DHT22;3136;48.788;9.772;2023-02-28T15:08:28;10.90;19.20
6206;DHT22;3136;48.788;9.772;2023-02-28T15:10:58;10.60;19.80
6206;DHT22;3136;48.788;9.772;2023-02-28T15:13:45;10.30;19.60
6206;DHT22;3136;48.788;9.772;2023-02-28T15:24:16;9.30;19.90
6206;DHT22;3136;48.788;9.772;2023-02-28T15:26:56;9.20;21.10
6206;DHT22;3136;48.788;9.772;2023-02-28T15:29:24;9.00;20.70
6206;DHT22;3136;48.788;9.772;2023-02-28T15:32:20;8.90;20.60
6206;DHT22;3136;48.788;9.772;2023-02-28T15:34:46;8.60;20.50
6206;DHT22;3136;48.788;9.772;2023-02-28T15:37:45;8.50;21.70
6206;DHT22;3136;48.788;9.772;2023-02-28T15:42:39;8.20;21.30
6206;DHT22;3136;48.788;9.772;2023-02-28T15:45:05;8.60;21.50
6206;DHT22;3136;48.788;9.772;2023-02-28T15:47:31;7.30;21.10
6206;DHT22;3136;48.788;9.772;2023-02-28T15:50:12;6.90;20.30
6206;DHT22;3136;48.788;9.772;2023-02-28T15:52:42;6.50;21.10
6206;DHT22;3136;48.788;9.772;2023-02-28T15:57:34;5.90;21.70
6206;DHT22;3136;48.788;9.772;2023-02-28T16:00:02;5.70;21.50
6206;DHT22;3136;48.788;9.772;2023-02-28T16:02:36;5.60;22.60
6206;DHT22;3136;48.788;9.772;2023-02-28T16:05:25;5.40;22.90
6206;DHT22;3136;48.788;9.772;2023-02-28T16:07:56;5.30;23.80
6206;DHT22;3136;48.788;9.772;2023-02-28T16:10:24;5.10;40.60
6206;DHT22;3136;48.788;9.772;2023-02-28T16:12:53;5.00;23.60
6206;DHT22;3136;48.788;9.772;2023-02-28T16:15:22;4.80;23.70
6206;DHT22;3136;48.788;9.772;2023-02-28T16:17:48;4.80;23.10
6206;DHT22;3136;48.788;9.772;2023-02-28T16:20:18;4.70;23.60
6206;DHT22;3136;48.788;9.772;2023-02-28T16:22:44;4.50;23.70
6206;DHT22;3136;48.788;9.772;2023-02-28T16:25:15;4.40;24.10
6206;DHT22;3136;48.788;9.772;2023-02-28T16:27:42;4.30;26.20
6206;DHT22;3136;48.788;9.772;2023-02-28T16:30:17;4.30;25.00
6206;DHT22;3136;48.788;9.772;2023-02-28T16:32:43;4.20;24.30
6206;DHT22;3136;48.788;9.772;2023-02-28T16:35:12;4.10;25.10
6206;DHT22;3136;48.788;9.772;2023-02-28T16:37:39;4.00;25.50
6206;DHT22;3136;48.788;9.772;2023-02-28T16:40:05;3.90;25.80
6206;DHT22;3136;48.788;9.772;2023-02-28T16:42:31;3.80;27.00
6206;DHT22;3136;48.788;9.772;2023-02-28T16:44:57;3.70;27.90
6206;DHT22;3136;48.788;9.772;2023-02-28T16:47:23;3.60;27.20
6206;DHT22;3136;48.788;9.772;2023-02-28T16:49:49;3.50;28.10
6206;DHT22;3136;48.788;9.772;2023-02-28T16:52:15;3.40;26.90
6206;DHT22;3136;48.788;9.772;2023-02-28T16:54:41;3.40;27.90
6206;DHT22;3136;48.788;9.772;2023-02-28T16:57:17;3.30;30.00
6206;DHT22;3136;48.788;9.772;2023-02-28T16:59:43;3.20;28.60
6206;DHT22;3136;48.788;9.772;2023-02-28T17:02:13;3.10;28.90
6206;DHT22;3136;48.788;9.772;2023-02-28T17:04:39;3.10;28.70
6206;DHT22;3136;48.788;9.772;2023-02-28T17:07:07;3.00;29.60
6206;DHT22;3136;48.788;9.772;2023-02-28T17:09:33;2.90;31.20
6206;DHT22;3136;48.788;9.772;2023-02-28T17:11:59;2.70;30.30
6206;DHT22;3136;48.788;9.772;2023-02-28T17:14:24;2.60;32.10
6206;DHT22;3136;48.788;9.772;2023-02-28T17:16:50;2.50;33.20
6206;DHT22;3136;48.788;9.772;2023-02-28T17:19:16;2.40;33.70
6206;DHT22;3136;48.788;9.772;2023-02-28T17:21:42;2.30;35.70
6206;DHT22;3136;48.788;9.772;2023-02-28T17:24:09;2.20;37.00
6206;DHT22;3136;48.788;9.772;2023-02-28T17:26:41;2.10;40.40
6206;DHT22;3136;48.788;9.772;2023-02-28T17:29:16;2.10;40.30
6206;DHT22;3136;48.788;9.772;2023-02-28T17:31:41;2.00;45.10
6206;DHT22;3136;48.788;9.772;2023-02-28T17:34:07;1.80;48.10
6206;DHT22;3136;48.788;9.772;2023-02-28T17:36:33;1.70;51.70
6206;DHT22;3136;48.788;9.772;2023-02-28T17:39:01;1.60;81.20
6206;DHT22;3136;48.788;9.772;2023-02-28T17:41:26;1.50;60.20
6206;DHT22;3136;48.788;9.772;2023-02-28T17:43:52;1.30;66.00
6206;DHT22;3136;48.788;9.772;2023-02-28T17:48:46;1.00;84.70
6206;DHT22;3136;48.788;9.772;2023-02-28T17:51:13;0.80;92.30
6206;DHT22;3136;48.788;9.772;2023-02-28T17:53:38;0.70;98.10
6206;DHT22;3136;48.788;9.772;2023-02-28T17:56:04;0.50;99.90
6206;DHT22;3136;48.788;9.772;2023-02-28T17:58:30;0.40;99.90
6206;DHT22;3136;48.788;9.772;2023-02-28T18:00:59;0.30;99.90
6206;DHT22;3136;48.788;9.772;2023-02-28T18:03:24;0.10;99.90
6206;DHT22;3136;48.788;9.772;2023-02-28T18:05:51;0.00;99.90
6206;DHT22;3136;48.788;9.772;2023-02-28T18:08:16;-0.10;99.90
6206;DHT22;3136;48.788;9.772;2023-02-28T18:10:42;-0.20;99.90
6206;DHT22;3136;48.788;9.772;2023-02-28T18:16:29;-0.40;99.90
6206;DHT22;3136;48.788;9.772;2023-02-28T18:18:55;-0.50;99.90
6206;DHT22;3136;48.788;9.772;2023-02-28T18:21:21;-0.60;99.90
6206;DHT22;3136;48.788;9.772;2023-02-28T18:23:46;-0.60;99.90
6206;DHT22;3136;48.788;9.772;2023-02-28T18:26:17;-0.60;99.90
6206;DHT22;3136;48.788;9.772;2023-02-28T18:28:43;-0.60;99.90
6206;DHT22;3136;48.788;9.772;2023-02-28T18:31:11;-0.70;99.90
6206;DHT22;3136;48.788;9.772;2023-02-28T18:33:38;-0.80;99.90
6206;DHT22;3136;48.788;9.772;2023-02-28T18:36:04;-0.90;99.90
6206;DHT22;3136;48.788;9.772;2023-02-28T18:38:30;-0.90;99.90